Terminal Aerodrome Forecast
Issued by NWS Springfield, MO

Home | Current Version | Previous Version | Text Only | Print | Product List | Glossary On
Versions: 1 2 3 4 5 6 7 8 9 10 11 12 13 14 15 16 17 18 19 20 21 22 23 24
024
FTUS43 KSGF 050539
TAFSGF
TAF
KSGF 050539Z 0506/0606 VRB03KT 3SM BR SCT250
      TEMPO 0509/0513 1/2SM FG
     FM051400 15007KT P6SM SCT250
     FM051800 16009KT P6SM SCT200
     FM060000 15007KT P6SM BKN150=

USA.gov is the U.S. government's official web portal to all federal, state and local government web resources and services.